EZY85GC EGKK-LGKF
Flight info
| Callsign | EZY85GC |
|---|---|
| Flight time | 2h 46m |
| Altitude | 35000 |
| Route | SFD Y47 BENBO UL612 OGULO DCT OKASI DCT OKEKO DCT MOU DCT MADIV DCT MOKIP DCT TUFTA DCT KOGAS DCT MEDAM DCT NITAM DCT MOGBO DCT ELB DCT MEDAL DCT RAVAL DCT LUNAK DCT ELVIN DCT RIFFI DCT MALOG DCT EDOPA DCT PEVIR DCT DELER DCT AGNIS DCT CRN DCT ADREN DCT TOMGI DCT RUTOM UM601 LASKO |
| Aircraft | A320/M-SDE2E3FGHIJ1RWXYZ/LB1 |
Departure
| Time | 2026-04-21 11:15 |
|---|---|
| Airport | London Gatwick Airport (EGKK) |
Arrival
| Time | 2026-04-21 14:02 |
|---|---|
| Airport | Kefallinia Airport (LGKF) |
| Time | Latitude | Longitude | Altitude | Speed | Heading |
|---|---|---|---|---|---|
| 2026-04-21 10:26 | 51.15650 | -0.17787 | 204 ft | 0 kts | 168° |
| 2026-04-21 11:01 | 51.15652 | -0.17787 | 203 ft | 2 kts | 168° |
| 2026-04-21 11:01 | 51.15678 | -0.17796 | 215 ft | 4 kts | 167° |
| 2026-04-21 11:01 | 51.15699 | -0.17803 | 213 ft | 4 kts | 182° |
| 2026-04-21 11:02 | 51.15727 | -0.17753 | 208 ft | 4 kts | 257° |
| 2026-04-21 11:02 | 51.15732 | -0.17722 | 206 ft | 0 kts | 257° |
| 2026-04-21 11:04 | 51.15731 | -0.17726 | 205 ft | 1 kts | 257° |
| 2026-04-21 11:04 | 51.15724 | -0.17774 | 206 ft | 8 kts | 257° |
| 2026-04-21 11:04 | 51.15711 | -0.17872 | 203 ft | 9 kts | 258° |
| 2026-04-21 11:04 | 51.15695 | -0.17989 | 203 ft | 10 kts | 258° |
| 2026-04-21 11:05 | 51.15682 | -0.18091 | 203 ft | 9 kts | 258° |
| 2026-04-21 11:05 | 51.15669 | -0.18182 | 210 ft | 10 kts | 257° |
| 2026-04-21 11:05 | 51.15654 | -0.18282 | 206 ft | 8 kts | 252° |
| 2026-04-21 11:05 | 51.15610 | -0.18344 | 205 ft | 10 kts | 191° |
| 2026-04-21 11:06 | 51.15549 | -0.18332 | 205 ft | 8 kts | 168° |
| 2026-04-21 11:06 | 51.15523 | -0.18323 | 203 ft | 0 kts | 167° |
| 2026-04-21 11:06 | 51.15521 | -0.18322 | 203 ft | 2 kts | 167° |
| 2026-04-21 11:07 | 51.15448 | -0.18297 | 215 ft | 17 kts | 168° |
| 2026-04-21 11:07 | 51.15340 | -0.18260 | 203 ft | 15 kts | 168° |
| 2026-04-21 11:07 | 51.15240 | -0.18226 | 209 ft | 15 kts | 168° |
| 2026-04-21 11:07 | 51.15144 | -0.18201 | 209 ft | 13 kts | 186° |
| 2026-04-21 11:08 | 51.15092 | -0.18330 | 202 ft | 20 kts | 258° |
| 2026-04-21 11:08 | 51.15056 | -0.18595 | 214 ft | 28 kts | 258° |
| 2026-04-21 11:08 | 51.15016 | -0.18895 | 205 ft | 27 kts | 258° |
| 2026-04-21 11:08 | 51.14979 | -0.19169 | 205 ft | 23 kts | 257° |
| 2026-04-21 11:09 | 51.14943 | -0.19421 | 209 ft | 25 kts | 258° |
| 2026-04-21 11:09 | 51.14906 | -0.19697 | 206 ft | 25 kts | 257° |
| 2026-04-21 11:09 | 51.14868 | -0.19962 | 207 ft | 24 kts | 257° |
| 2026-04-21 11:09 | 51.14834 | -0.20212 | 204 ft | 23 kts | 257° |
| 2026-04-21 11:10 | 51.14802 | -0.20444 | 208 ft | 20 kts | 257° |
| 2026-04-21 11:10 | 51.14775 | -0.20647 | 203 ft | 18 kts | 258° |
| 2026-04-21 11:10 | 51.14749 | -0.20830 | 210 ft | 16 kts | 257° |
| 2026-04-21 11:10 | 51.14727 | -0.20986 | 208 ft | 13 kts | 257° |
| 2026-04-21 11:11 | 51.14709 | -0.21119 | 212 ft | 11 kts | 258° |
| 2026-04-21 11:11 | 51.14705 | -0.21151 | 206 ft | 0 kts | 257° |
| 2026-04-21 11:11 | 51.14704 | -0.21152 | 206 ft | 0 kts | 257° |
| 2026-04-21 11:12 | 51.14697 | -0.21205 | 213 ft | 9 kts | 257° |
| 2026-04-21 11:12 | 51.14681 | -0.21296 | 212 ft | 8 kts | 244° |
| 2026-04-21 11:12 | 51.14633 | -0.21331 | 207 ft | 9 kts | 175° |
| 2026-04-21 11:12 | 51.14620 | -0.21327 | 203 ft | 0 kts | 168° |
| 2026-04-21 11:13 | 51.14587 | -0.21312 | 213 ft | 11 kts | 159° |
| 2026-04-21 11:13 | 51.14526 | -0.21231 | 207 ft | 11 kts | 125° |
| 2026-04-21 11:13 | 51.14520 | -0.21168 | 211 ft | 1 kts | 78° |
| 2026-04-21 11:14 | 51.14520 | -0.21167 | 202 ft | 0 kts | 78° |
| 2026-04-21 11:14 | 51.14523 | -0.21148 | 209 ft | 9 kts | 78° |
| 2026-04-21 11:14 | 51.14583 | -0.20713 | 215 ft | 73 kts | 78° |
| 2026-04-21 11:14 | 51.14737 | -0.19609 | 205 ft | 129 kts | 77° |
| 2026-04-21 11:15 | 51.14953 | -0.18001 | 374 ft | 157 kts | 76° |
| 2026-04-21 11:15 | 51.15180 | -0.16334 | 1161 ft | 153 kts | 75° |
| 2026-04-21 11:15 | 51.15415 | -0.14632 | 1668 ft | 166 kts | 76° |
| 2026-04-21 11:15 | 51.15683 | -0.12707 | 1961 ft | 190 kts | 76° |
| 2026-04-21 11:16 | 51.15982 | -0.10560 | 2431 ft | 203 kts | 76° |
| 2026-04-21 11:16 | 51.16232 | -0.08324 | 3172 ft | 208 kts | 89° |
| 2026-04-21 11:16 | 51.15719 | -0.06175 | 3907 ft | 220 kts | 129° |
| 2026-04-21 11:16 | 51.14855 | -0.05152 | 4150 ft | 242 kts | 149° |
| 2026-04-21 11:17 | 51.13221 | -0.04242 | 4305 ft | 258 kts | 162° |
| 2026-04-21 11:17 | 51.11440 | -0.03677 | 4431 ft | 262 kts | 166° |
| 2026-04-21 11:17 | 51.09640 | -0.03220 | 4565 ft | 262 kts | 165° |
| 2026-04-21 11:17 | 51.07858 | -0.02640 | 4761 ft | 263 kts | 162° |
| 2026-04-21 11:18 | 51.06088 | -0.01914 | 5619 ft | 262 kts | 160° |
| 2026-04-21 11:18 | 51.04324 | -0.01122 | 6464 ft | 264 kts | 159° |
| 2026-04-21 11:18 | 51.02551 | -0.00290 | 7238 ft | 267 kts | 158° |
| 2026-04-21 11:18 | 51.00765 | 0.00564 | 8045 ft | 270 kts | 158° |
| 2026-04-21 11:19 | 50.98955 | 0.01434 | 8782 ft | 274 kts | 158° |
| 2026-04-21 11:19 | 50.97116 | 0.02315 | 9520 ft | 278 kts | 158° |
| 2026-04-21 11:19 | 50.95247 | 0.03203 | 10231 ft | 282 kts | 159° |
| 2026-04-21 11:19 | 50.93349 | 0.04095 | 10848 ft | 286 kts | 160° |
| 2026-04-21 11:20 | 50.91429 | 0.04993 | 11502 ft | 290 kts | 160° |
| 2026-04-21 11:20 | 50.89483 | 0.05907 | 12147 ft | 293 kts | 160° |
| 2026-04-21 11:20 | 50.87517 | 0.06837 | 12824 ft | 296 kts | 160° |
| 2026-04-21 11:20 | 50.85518 | 0.07779 | 13416 ft | 302 kts | 159° |
| 2026-04-21 11:21 | 50.83484 | 0.08728 | 14034 ft | 307 kts | 160° |
| 2026-04-21 11:21 | 50.81431 | 0.09685 | 14597 ft | 310 kts | 159° |
| 2026-04-21 11:21 | 50.79342 | 0.10661 | 15119 ft | 315 kts | 160° |
| 2026-04-21 11:21 | 50.77186 | 0.11493 | 15564 ft | 324 kts | 170° |
| 2026-04-21 11:22 | 50.74903 | 0.11616 | 15962 ft | 336 kts | 184° |
| 2026-04-21 11:22 | 50.72543 | 0.10953 | 16098 ft | 354 kts | 193° |
| 2026-04-21 11:22 | 50.70119 | 0.10055 | 16232 ft | 370 kts | 193° |
| 2026-04-21 11:22 | 50.67583 | 0.09122 | 16547 ft | 380 kts | 193° |
| 2026-04-21 11:23 | 50.64994 | 0.08177 | 17017 ft | 385 kts | 193° |
| 2026-04-21 11:23 | 50.62365 | 0.07219 | 17495 ft | 389 kts | 195° |
| 2026-04-21 11:23 | 50.59714 | 0.06257 | 18043 ft | 392 kts | 195° |
| 2026-04-21 11:23 | 50.57044 | 0.05292 | 18574 ft | 395 kts | 195° |
| 2026-04-21 11:24 | 50.54355 | 0.04322 | 19021 ft | 398 kts | 195° |
| 2026-04-21 11:24 | 50.51642 | 0.03348 | 19464 ft | 401 kts | 196° |
| 2026-04-21 11:24 | 50.48871 | 0.02658 | 19883 ft | 408 kts | 186° |
| 2026-04-21 11:24 | 50.46016 | 0.02809 | 20299 ft | 415 kts | 174° |
| 2026-04-21 11:25 | 50.43188 | 0.03877 | 20690 ft | 423 kts | 162° |
| 2026-04-21 11:25 | 50.40503 | 0.05838 | 21016 ft | 431 kts | 150° |
| 2026-04-21 11:25 | 50.37972 | 0.08421 | 21331 ft | 436 kts | 148° |
| 2026-04-21 11:25 | 50.35426 | 0.11060 | 21695 ft | 441 kts | 148° |
| 2026-04-21 11:26 | 50.32856 | 0.13719 | 22056 ft | 445 kts | 149° |
| 2026-04-21 11:26 | 50.30258 | 0.16395 | 22425 ft | 449 kts | 149° |
| 2026-04-21 11:26 | 50.27635 | 0.19089 | 22780 ft | 453 kts | 149° |
| 2026-04-21 11:26 | 50.24989 | 0.21802 | 23129 ft | 457 kts | 149° |
| 2026-04-21 11:27 | 50.22349 | 0.24508 | 23461 ft | 461 kts | 149° |
| 2026-04-21 11:27 | 50.19624 | 0.27304 | 23801 ft | 465 kts | 150° |
| 2026-04-21 11:27 | 50.16948 | 0.30055 | 24091 ft | 468 kts | 150° |
| 2026-04-21 11:27 | 50.14227 | 0.32855 | 24418 ft | 470 kts | 150° |
| 2026-04-21 11:28 | 50.11493 | 0.35669 | 24746 ft | 472 kts | 150° |
| 2026-04-21 11:28 | 50.08748 | 0.38497 | 25077 ft | 473 kts | 150° |
| 2026-04-21 11:28 | 50.05992 | 0.41328 | 25402 ft | 475 kts | 150° |
| 2026-04-21 11:28 | 50.03224 | 0.44160 | 25720 ft | 477 kts | 150° |
| 2026-04-21 11:29 | 50.00445 | 0.46994 | 26032 ft | 479 kts | 150° |
| 2026-04-21 11:29 | 49.97642 | 0.49840 | 26281 ft | 483 kts | 150° |
| 2026-04-21 11:29 | 49.94826 | 0.52696 | 26561 ft | 484 kts | 150° |
| 2026-04-21 11:29 | 49.92004 | 0.55558 | 26884 ft | 485 kts | 150° |
| 2026-04-21 11:30 | 49.89175 | 0.58424 | 27195 ft | 487 kts | 150° |
| 2026-04-21 11:30 | 49.86338 | 0.61312 | 27495 ft | 489 kts | 149° |
| 2026-04-21 11:30 | 49.83634 | 0.64549 | 27798 ft | 493 kts | 143° |
| 2026-04-21 11:30 | 49.80975 | 0.67921 | 28090 ft | 495 kts | 143° |
| 2026-04-21 11:31 | 49.78303 | 0.71295 | 28389 ft | 496 kts | 143° |
| 2026-04-21 11:31 | 49.75620 | 0.74671 | 28685 ft | 498 kts | 143° |
| 2026-04-21 11:31 | 49.72928 | 0.78048 | 28970 ft | 499 kts | 143° |
| 2026-04-21 11:31 | 49.70230 | 0.81427 | 29275 ft | 500 kts | 143° |
| 2026-04-21 11:32 | 49.67552 | 0.84771 | 29541 ft | 501 kts | 144° |
| 2026-04-21 11:32 | 49.64838 | 0.88157 | 29801 ft | 503 kts | 144° |
| 2026-04-21 11:32 | 49.62110 | 0.91554 | 30061 ft | 505 kts | 143° |
| 2026-04-21 11:32 | 49.59366 | 0.94973 | 30233 ft | 508 kts | 143° |
| 2026-04-21 11:33 | 49.56608 | 0.98410 | 30430 ft | 510 kts | 143° |
| 2026-04-21 11:33 | 49.53843 | 1.01849 | 30689 ft | 510 kts | 143° |
| 2026-04-21 11:33 | 49.51085 | 1.05272 | 30983 ft | 508 kts | 143° |
| 2026-04-21 11:33 | 49.48340 | 1.08671 | 31384 ft | 505 kts | 143° |
| 2026-04-21 11:34 | 49.45612 | 1.12042 | 31745 ft | 502 kts | 143° |
| 2026-04-21 11:34 | 49.42897 | 1.15395 | 32068 ft | 501 kts | 143° |
| 2026-04-21 11:34 | 49.40185 | 1.18742 | 32391 ft | 499 kts | 143° |
| 2026-04-21 11:34 | 49.37484 | 1.22070 | 32709 ft | 498 kts | 143° |
| 2026-04-21 11:35 | 49.34786 | 1.25385 | 33019 ft | 496 kts | 143° |
| 2026-04-21 11:35 | 49.32091 | 1.28687 | 33331 ft | 495 kts | 143° |
| 2026-04-21 11:35 | 49.29407 | 1.31976 | 33631 ft | 494 kts | 143° |
| 2026-04-21 11:35 | 49.26727 | 1.35257 | 33957 ft | 493 kts | 143° |
| 2026-04-21 11:36 | 49.24049 | 1.38532 | 34199 ft | 493 kts | 143° |
| 2026-04-21 11:36 | 49.21372 | 1.41801 | 34433 ft | 492 kts | 143° |
| 2026-04-21 11:36 | 49.18699 | 1.45063 | 34672 ft | 491 kts | 143° |
| 2026-04-21 11:36 | 49.16033 | 1.48317 | 34914 ft | 490 kts | 143° |
| 2026-04-21 11:37 | 49.13361 | 1.51570 | 35133 ft | 489 kts | 143° |
| 2026-04-21 11:37 | 49.10733 | 1.54762 | 35190 ft | 487 kts | 143° |
| 2026-04-21 11:37 | 49.05447 | 1.61173 | 35194 ft | 483 kts | 143° |
| 2026-04-21 11:38 | 49.00195 | 1.67513 | 35196 ft | 481 kts | 143° |
| 2026-04-21 11:38 | 48.94941 | 1.73840 | 35200 ft | 481 kts | 143° |
| 2026-04-21 11:39 | 48.89680 | 1.80160 | 35195 ft | 483 kts | 143° |
| 2026-04-21 11:39 | 48.84392 | 1.86488 | 35195 ft | 484 kts | 143° |
| 2026-04-21 11:40 | 48.79095 | 1.92809 | 35168 ft | 484 kts | 144° |
| 2026-04-21 11:40 | 48.73796 | 1.99122 | 35164 ft | 484 kts | 144° |
| 2026-04-21 11:41 | 48.68503 | 2.05419 | 35165 ft | 484 kts | 144° |
| 2026-04-21 11:41 | 48.63205 | 2.11701 | 35151 ft | 484 kts | 144° |
| 2026-04-21 11:42 | 48.57936 | 2.17928 | 35186 ft | 484 kts | 143° |
| 2026-04-21 11:42 | 48.53068 | 2.24976 | 35187 ft | 486 kts | 136° |
| 2026-04-21 11:43 | 48.48307 | 2.32213 | 35170 ft | 486 kts | 136° |
| 2026-04-21 11:43 | 48.43528 | 2.39429 | 35168 ft | 486 kts | 136° |
| 2026-04-21 11:44 | 48.38751 | 2.46624 | 35160 ft | 486 kts | 136° |
| 2026-04-21 11:44 | 48.33976 | 2.53810 | 35172 ft | 485 kts | 136° |
| 2026-04-21 11:45 | 48.29095 | 2.60806 | 35180 ft | 483 kts | 144° |
| 2026-04-21 11:45 | 48.23359 | 2.65891 | 35156 ft | 477 kts | 159° |
| 2026-04-21 11:46 | 48.17373 | 2.70240 | 35134 ft | 479 kts | 155° |
| 2026-04-21 11:46 | 48.11522 | 2.75031 | 35147 ft | 479 kts | 154° |
| 2026-04-21 11:47 | 48.05607 | 2.79542 | 35149 ft | 476 kts | 160° |
| 2026-04-21 11:47 | 47.99533 | 2.83467 | 35145 ft | 475 kts | 161° |
| 2026-04-21 11:48 | 47.93447 | 2.87290 | 35130 ft | 474 kts | 161° |
| 2026-04-21 11:48 | 47.87365 | 2.91097 | 35136 ft | 474 kts | 161° |
| 2026-04-21 11:49 | 47.81346 | 2.94895 | 35130 ft | 473 kts | 161° |
| 2026-04-21 11:49 | 47.75285 | 2.98732 | 35104 ft | 473 kts | 161° |
| 2026-04-21 11:50 | 47.69221 | 3.02549 | 35113 ft | 473 kts | 161° |
| 2026-04-21 11:50 | 47.63158 | 3.06353 | 35112 ft | 472 kts | 161° |
| 2026-04-21 11:51 | 47.57103 | 3.10145 | 35105 ft | 472 kts | 161° |
| 2026-04-21 11:51 | 47.51047 | 3.13930 | 35101 ft | 472 kts | 161° |
| 2026-04-21 11:52 | 47.44999 | 3.17699 | 35098 ft | 471 kts | 161° |
| 2026-04-21 11:52 | 47.38952 | 3.21444 | 35094 ft | 471 kts | 161° |
| 2026-04-21 11:53 | 47.32914 | 3.25176 | 35069 ft | 471 kts | 161° |
| 2026-04-21 11:53 | 47.26907 | 3.28879 | 35084 ft | 470 kts | 161° |
| 2026-04-21 11:54 | 47.20878 | 3.32589 | 35089 ft | 469 kts | 161° |
| 2026-04-21 11:54 | 47.14854 | 3.36299 | 35078 ft | 469 kts | 161° |
| 2026-04-21 11:55 | 47.08831 | 3.39990 | 35072 ft | 469 kts | 161° |
| 2026-04-21 11:55 | 47.02811 | 3.43673 | 35073 ft | 469 kts | 161° |
| 2026-04-21 11:56 | 46.96788 | 3.47345 | 35064 ft | 468 kts | 162° |
| 2026-04-21 11:56 | 46.90769 | 3.51002 | 35041 ft | 468 kts | 161° |
| 2026-04-21 11:57 | 46.84745 | 3.54662 | 35046 ft | 468 kts | 162° |
| 2026-04-21 11:57 | 46.78736 | 3.58319 | 35049 ft | 468 kts | 159° |
| 2026-04-21 11:58 | 46.75881 | 3.60640 | 35051 ft | 473 kts | 148° |
| 2026-04-21 11:58 | 46.73332 | 3.63692 | 35051 ft | 477 kts | 136° |
| 2026-04-21 11:58 | 46.71225 | 3.67340 | 35048 ft | 479 kts | 125° |
| 2026-04-21 11:58 | 46.69586 | 3.71560 | 35044 ft | 479 kts | 113° |
| 2026-04-21 11:59 | 46.68495 | 3.76130 | 35035 ft | 478 kts | 102° |
| 2026-04-21 11:59 | 46.67709 | 3.80829 | 35033 ft | 478 kts | 102° |
| 2026-04-21 11:59 | 46.66104 | 3.90232 | 35032 ft | 479 kts | 103° |
| 2026-04-21 12:00 | 46.64476 | 3.99643 | 35033 ft | 480 kts | 103° |
| 2026-04-21 12:00 | 46.62832 | 4.09066 | 35048 ft | 481 kts | 103° |
| 2026-04-21 12:01 | 46.61179 | 4.18492 | 35044 ft | 481 kts | 103° |
| 2026-04-21 12:01 | 46.59525 | 4.27935 | 35044 ft | 482 kts | 103° |
| 2026-04-21 12:02 | 46.57320 | 4.40497 | 35046 ft | 482 kts | 103° |
| 2026-04-21 12:03 | 46.55647 | 4.49933 | 35057 ft | 482 kts | 103° |
| 2026-04-21 12:03 | 46.53961 | 4.59366 | 35052 ft | 483 kts | 103° |
| 2026-04-21 12:04 | 46.52271 | 4.68795 | 35048 ft | 483 kts | 103° |
| 2026-04-21 12:04 | 46.50572 | 4.78222 | 35046 ft | 483 kts | 103° |
| 2026-04-21 12:05 | 46.48859 | 4.87648 | 35053 ft | 483 kts | 104° |
| 2026-04-21 12:05 | 46.47147 | 4.97070 | 35045 ft | 483 kts | 104° |
| 2026-04-21 12:06 | 46.45414 | 5.06496 | 35017 ft | 484 kts | 104° |
| 2026-04-21 12:06 | 46.43679 | 5.15923 | 35016 ft | 484 kts | 104° |
| 2026-04-21 12:07 | 46.41949 | 5.25347 | 35036 ft | 484 kts | 104° |
| 2026-04-21 12:07 | 46.40206 | 5.34715 | 35027 ft | 485 kts | 105° |
| 2026-04-21 12:08 | 46.37543 | 5.43642 | 35023 ft | 483 kts | 123° |
| 2026-04-21 12:08 | 46.33406 | 5.51267 | 35021 ft | 481 kts | 133° |
| 2026-04-21 12:09 | 46.29052 | 5.58648 | 35020 ft | 482 kts | 133° |
| 2026-04-21 12:09 | 46.24699 | 5.66025 | 35029 ft | 482 kts | 133° |
| 2026-04-21 12:10 | 46.20334 | 5.73388 | 35013 ft | 483 kts | 133° |
| 2026-04-21 12:10 | 46.15959 | 5.80737 | 35019 ft | 483 kts | 133° |
| 2026-04-21 12:11 | 46.11586 | 5.88082 | 35027 ft | 483 kts | 133° |
| 2026-04-21 12:11 | 46.07202 | 5.95413 | 35002 ft | 482 kts | 133° |
| 2026-04-21 12:12 | 46.02817 | 6.02722 | 35000 ft | 482 kts | 133° |
| 2026-04-21 12:12 | 45.98455 | 6.09981 | 34976 ft | 483 kts | 133° |
| 2026-04-21 12:13 | 45.94054 | 6.17275 | 34983 ft | 483 kts | 133° |
| 2026-04-21 12:13 | 45.89643 | 6.24565 | 34988 ft | 484 kts | 133° |
| 2026-04-21 12:14 | 45.85233 | 6.31850 | 35001 ft | 483 kts | 133° |
| 2026-04-21 12:14 | 45.80686 | 6.38958 | 34987 ft | 481 kts | 142° |
| 2026-04-21 12:15 | 45.75360 | 6.44667 | 34966 ft | 478 kts | 149° |
| 2026-04-21 12:15 | 45.69939 | 6.50183 | 34959 ft | 479 kts | 148° |
| 2026-04-21 12:16 | 45.64507 | 6.55706 | 34967 ft | 479 kts | 148° |
| 2026-04-21 12:16 | 45.59073 | 6.61217 | 34968 ft | 479 kts | 148° |
| 2026-04-21 12:17 | 45.53682 | 6.66678 | 34958 ft | 478 kts | 148° |
| 2026-04-21 12:17 | 45.48242 | 6.72152 | 34963 ft | 478 kts | 148° |
| 2026-04-21 12:18 | 45.42809 | 6.77614 | 34965 ft | 478 kts | 148° |
| 2026-04-21 12:18 | 45.37384 | 6.83066 | 34934 ft | 477 kts | 148° |
| 2026-04-21 12:19 | 45.31956 | 6.88505 | 34945 ft | 477 kts | 149° |
| 2026-04-21 12:19 | 45.26553 | 6.94010 | 34960 ft | 479 kts | 143° |
| 2026-04-21 12:20 | 45.21708 | 7.00531 | 34971 ft | 480 kts | 138° |
| 2026-04-21 12:20 | 45.16915 | 7.07140 | 34981 ft | 480 kts | 138° |
| 2026-04-21 12:21 | 45.12163 | 7.13682 | 34975 ft | 480 kts | 138° |
| 2026-04-21 12:21 | 45.07463 | 7.20403 | 34989 ft | 480 kts | 136° |
| 2026-04-21 12:22 | 45.02824 | 7.27189 | 34992 ft | 480 kts | 136° |
| 2026-04-21 12:22 | 44.98168 | 7.33937 | 34952 ft | 480 kts | 136° |
| 2026-04-21 12:23 | 44.93485 | 7.40655 | 34943 ft | 480 kts | 137° |
| 2026-04-21 12:23 | 44.88792 | 7.47350 | 34947 ft | 480 kts | 137° |
| 2026-04-21 12:24 | 44.84103 | 7.54048 | 34960 ft | 480 kts | 137° |
| 2026-04-21 12:24 | 44.79412 | 7.60741 | 34980 ft | 480 kts | 137° |
| 2026-04-21 12:25 | 44.74712 | 7.67421 | 34967 ft | 480 kts | 137° |
| 2026-04-21 12:25 | 44.69999 | 7.74099 | 34952 ft | 481 kts | 137° |
| 2026-04-21 12:26 | 44.65285 | 7.80757 | 34946 ft | 481 kts | 137° |
| 2026-04-21 12:26 | 44.60568 | 7.87419 | 34956 ft | 480 kts | 137° |
| 2026-04-21 12:27 | 44.55848 | 7.94062 | 34958 ft | 480 kts | 137° |
| 2026-04-21 12:27 | 44.51118 | 8.00692 | 34954 ft | 481 kts | 137° |
| 2026-04-21 12:28 | 44.46384 | 8.07305 | 34942 ft | 481 kts | 137° |
| 2026-04-21 12:28 | 44.41641 | 8.13931 | 34939 ft | 481 kts | 137° |
| 2026-04-21 12:29 | 44.36907 | 8.20551 | 34939 ft | 481 kts | 137° |
| 2026-04-21 12:29 | 44.32164 | 8.27157 | 34942 ft | 482 kts | 138° |
| 2026-04-21 12:30 | 44.27407 | 8.33746 | 34925 ft | 481 kts | 138° |
| 2026-04-21 12:30 | 44.22681 | 8.40277 | 34933 ft | 481 kts | 138° |
| 2026-04-21 12:31 | 44.17920 | 8.46846 | 34936 ft | 481 kts | 138° |
| 2026-04-21 12:31 | 44.13158 | 8.53403 | 34939 ft | 482 kts | 138° |
| 2026-04-21 12:32 | 44.08386 | 8.59954 | 34934 ft | 482 kts | 138° |
| 2026-04-21 12:32 | 44.03610 | 8.66505 | 34943 ft | 482 kts | 138° |
| 2026-04-21 12:33 | 43.98831 | 8.73037 | 34948 ft | 482 kts | 138° |
| 2026-04-21 12:33 | 43.94040 | 8.79565 | 34940 ft | 483 kts | 138° |
| 2026-04-21 12:34 | 43.89247 | 8.86090 | 34938 ft | 483 kts | 138° |
| 2026-04-21 12:34 | 43.84445 | 8.92601 | 34922 ft | 483 kts | 139° |
| 2026-04-21 12:35 | 43.79667 | 8.99062 | 34941 ft | 482 kts | 138° |
| 2026-04-21 12:35 | 43.74868 | 9.05554 | 34946 ft | 482 kts | 138° |
| 2026-04-21 12:36 | 43.70068 | 9.12031 | 34950 ft | 482 kts | 139° |
| 2026-04-21 12:36 | 43.65263 | 9.18496 | 34936 ft | 482 kts | 139° |
| 2026-04-21 12:37 | 43.60445 | 9.24945 | 34941 ft | 482 kts | 139° |
| 2026-04-21 12:37 | 43.55632 | 9.31383 | 34943 ft | 482 kts | 139° |
| 2026-04-21 12:38 | 43.50848 | 9.37769 | 34944 ft | 482 kts | 139° |
| 2026-04-21 12:38 | 43.46024 | 9.44186 | 34944 ft | 482 kts | 139° |
| 2026-04-21 12:39 | 43.41204 | 9.50596 | 34927 ft | 482 kts | 139° |
| 2026-04-21 12:39 | 43.36381 | 9.56992 | 34933 ft | 481 kts | 139° |
| 2026-04-21 12:40 | 43.31554 | 9.63377 | 34941 ft | 481 kts | 139° |
| 2026-04-21 12:40 | 43.26755 | 9.69711 | 34944 ft | 481 kts | 139° |
| 2026-04-21 12:41 | 43.21929 | 9.76073 | 34947 ft | 481 kts | 139° |
| 2026-04-21 12:41 | 43.17095 | 9.82425 | 34935 ft | 481 kts | 139° |
| 2026-04-21 12:42 | 43.12263 | 9.88751 | 34950 ft | 480 kts | 140° |
| 2026-04-21 12:42 | 43.07427 | 9.95063 | 34948 ft | 480 kts | 140° |
| 2026-04-21 12:43 | 43.02587 | 10.01378 | 34945 ft | 480 kts | 140° |
| 2026-04-21 12:43 | 42.97751 | 10.07677 | 34926 ft | 480 kts | 140° |
| 2026-04-21 12:44 | 42.92904 | 10.13970 | 34926 ft | 480 kts | 140° |
| 2026-04-21 12:44 | 42.88058 | 10.20252 | 34933 ft | 481 kts | 140° |
| 2026-04-21 12:45 | 42.83242 | 10.26484 | 34945 ft | 481 kts | 140° |
| 2026-04-21 12:45 | 42.78379 | 10.32743 | 34941 ft | 481 kts | 140° |
| 2026-04-21 12:46 | 42.73519 | 10.38985 | 34919 ft | 481 kts | 140° |
| 2026-04-21 12:46 | 42.68808 | 10.45462 | 34923 ft | 482 kts | 135° |
| 2026-04-21 12:47 | 42.64318 | 10.52250 | 34925 ft | 483 kts | 134° |
| 2026-04-21 12:47 | 42.59832 | 10.59041 | 34940 ft | 483 kts | 135° |
| 2026-04-21 12:48 | 42.55268 | 10.65737 | 34934 ft | 483 kts | 136° |
| 2026-04-21 12:48 | 42.50662 | 10.72389 | 34915 ft | 484 kts | 136° |
| 2026-04-21 12:49 | 42.46058 | 10.79043 | 34921 ft | 484 kts | 136° |
| 2026-04-21 12:49 | 42.42238 | 10.84581 | 34923 ft | 484 kts | 136° |
| 2026-04-21 12:50 | 42.37643 | 10.91246 | 34930 ft | 484 kts | 136° |
| 2026-04-21 12:50 | 42.33039 | 10.97903 | 34933 ft | 485 kts | 136° |
| 2026-04-21 12:51 | 42.28425 | 11.04543 | 34937 ft | 485 kts | 136° |
| 2026-04-21 12:51 | 42.23805 | 11.11179 | 34936 ft | 485 kts | 136° |
| 2026-04-21 12:52 | 42.19190 | 11.17799 | 34939 ft | 485 kts | 136° |
| 2026-04-21 12:52 | 42.14562 | 11.24415 | 34939 ft | 485 kts | 136° |
| 2026-04-21 12:53 | 42.09933 | 11.31017 | 34932 ft | 484 kts | 136° |
| 2026-04-21 12:53 | 42.05305 | 11.37601 | 34936 ft | 484 kts | 136° |
| 2026-04-21 12:54 | 42.00671 | 11.44177 | 34927 ft | 484 kts | 136° |
| 2026-04-21 12:54 | 41.96044 | 11.50739 | 34933 ft | 483 kts | 136° |
| 2026-04-21 12:55 | 41.91452 | 11.57252 | 34932 ft | 483 kts | 136° |
| 2026-04-21 12:55 | 41.86827 | 11.63794 | 34933 ft | 483 kts | 136° |
| 2026-04-21 12:56 | 41.82188 | 11.70319 | 34946 ft | 483 kts | 136° |
| 2026-04-21 12:56 | 41.77550 | 11.76825 | 34933 ft | 483 kts | 136° |
| 2026-04-21 12:57 | 41.72938 | 11.83355 | 34944 ft | 483 kts | 136° |
| 2026-04-21 12:57 | 41.68321 | 11.89885 | 34949 ft | 483 kts | 136° |
| 2026-04-21 12:58 | 41.63668 | 11.96379 | 34944 ft | 483 kts | 137° |
| 2026-04-21 12:58 | 41.59002 | 12.02830 | 34937 ft | 483 kts | 137° |
| 2026-04-21 12:59 | 41.54338 | 12.09270 | 34922 ft | 482 kts | 137° |
| 2026-04-21 12:59 | 41.49715 | 12.15679 | 34928 ft | 482 kts | 137° |
| 2026-04-21 13:00 | 41.45064 | 12.22122 | 34934 ft | 482 kts | 137° |
| 2026-04-21 13:00 | 41.40409 | 12.28555 | 34938 ft | 482 kts | 137° |
| 2026-04-21 13:01 | 41.35748 | 12.34982 | 34939 ft | 482 kts | 137° |
| 2026-04-21 13:01 | 41.31085 | 12.41399 | 34935 ft | 482 kts | 137° |
| 2026-04-21 13:02 | 41.26417 | 12.47806 | 34935 ft | 482 kts | 137° |
| 2026-04-21 13:02 | 41.19476 | 12.57500 | 34937 ft | 484 kts | 134° |
| 2026-04-21 13:03 | 41.15119 | 12.64313 | 34946 ft | 484 kts | 131° |
| 2026-04-21 13:03 | 41.10822 | 12.71202 | 34947 ft | 484 kts | 132° |
| 2026-04-21 13:04 | 41.06450 | 12.78006 | 34958 ft | 484 kts | 133° |
| 2026-04-21 13:04 | 41.02031 | 12.84736 | 34944 ft | 484 kts | 133° |
| 2026-04-21 13:05 | 40.97606 | 12.91457 | 34945 ft | 484 kts | 133° |
| 2026-04-21 13:05 | 40.93229 | 12.98149 | 34950 ft | 484 kts | 133° |
| 2026-04-21 13:06 | 40.88789 | 13.04930 | 34954 ft | 484 kts | 133° |
| 2026-04-21 13:06 | 40.84399 | 13.11608 | 34955 ft | 484 kts | 133° |
| 2026-04-21 13:07 | 40.79974 | 13.18335 | 34938 ft | 484 kts | 133° |
| 2026-04-21 13:07 | 40.75557 | 13.25030 | 34949 ft | 484 kts | 133° |
| 2026-04-21 13:08 | 40.71135 | 13.31719 | 34949 ft | 484 kts | 133° |
| 2026-04-21 13:08 | 40.66712 | 13.38392 | 34951 ft | 484 kts | 133° |
| 2026-04-21 13:09 | 40.62278 | 13.45056 | 34957 ft | 483 kts | 133° |
| 2026-04-21 13:09 | 40.57845 | 13.51704 | 34977 ft | 483 kts | 133° |
| 2026-04-21 13:10 | 40.53427 | 13.58309 | 34947 ft | 483 kts | 133° |
| 2026-04-21 13:10 | 40.49121 | 13.65089 | 34953 ft | 483 kts | 130° |
| 2026-04-21 13:11 | 40.44954 | 13.72032 | 34956 ft | 484 kts | 130° |
| 2026-04-21 13:11 | 40.40781 | 13.78950 | 34960 ft | 483 kts | 130° |
| 2026-04-21 13:12 | 40.36570 | 13.85824 | 34973 ft | 483 kts | 130° |
| 2026-04-21 13:12 | 40.32339 | 13.92669 | 34972 ft | 483 kts | 131° |
| 2026-04-21 13:13 | 40.28114 | 13.99505 | 34972 ft | 482 kts | 130° |
| 2026-04-21 13:13 | 40.23886 | 14.06324 | 34953 ft | 482 kts | 131° |
| 2026-04-21 13:14 | 40.19638 | 14.13118 | 34954 ft | 482 kts | 131° |
| 2026-04-21 13:14 | 40.15387 | 14.19905 | 34956 ft | 482 kts | 131° |
| 2026-04-21 13:15 | 40.11155 | 14.26705 | 34965 ft | 482 kts | 131° |
| 2026-04-21 13:15 | 40.06918 | 14.33493 | 34966 ft | 482 kts | 131° |
| 2026-04-21 13:16 | 40.02673 | 14.40260 | 34968 ft | 482 kts | 131° |
| 2026-04-21 13:16 | 39.98441 | 14.47021 | 34958 ft | 481 kts | 131° |
| 2026-04-21 13:17 | 39.94227 | 14.53732 | 34956 ft | 481 kts | 131° |
| 2026-04-21 13:17 | 39.89979 | 14.60469 | 34957 ft | 481 kts | 131° |
| 2026-04-21 13:18 | 39.85734 | 14.67208 | 34960 ft | 481 kts | 131° |
| 2026-04-21 13:18 | 39.81558 | 14.74013 | 34960 ft | 482 kts | 124° |
| 2026-04-21 13:19 | 39.78505 | 14.81767 | 34957 ft | 483 kts | 113° |
| 2026-04-21 13:19 | 39.75829 | 14.89771 | 34957 ft | 483 kts | 113° |
| 2026-04-21 13:20 | 39.73137 | 14.97763 | 34960 ft | 483 kts | 114° |
| 2026-04-21 13:20 | 39.70442 | 15.05748 | 34961 ft | 483 kts | 114° |
| 2026-04-21 13:21 | 39.67737 | 15.13735 | 34966 ft | 483 kts | 114° |
| 2026-04-21 13:21 | 39.65055 | 15.21660 | 34968 ft | 483 kts | 114° |
| 2026-04-21 13:22 | 39.62350 | 15.29624 | 34977 ft | 482 kts | 114° |
| 2026-04-21 13:22 | 39.59641 | 15.37577 | 34983 ft | 482 kts | 114° |
| 2026-04-21 13:23 | 39.56924 | 15.45529 | 34986 ft | 481 kts | 114° |
| 2026-04-21 13:23 | 39.54207 | 15.53449 | 34986 ft | 481 kts | 114° |
| 2026-04-21 13:24 | 39.51490 | 15.61369 | 34984 ft | 481 kts | 114° |
| 2026-04-21 13:24 | 39.48764 | 15.69269 | 34989 ft | 480 kts | 114° |
| 2026-04-21 13:25 | 39.46029 | 15.77159 | 34990 ft | 480 kts | 114° |
| 2026-04-21 13:25 | 39.43306 | 15.85037 | 34991 ft | 480 kts | 114° |
| 2026-04-21 13:26 | 39.40583 | 15.92911 | 34992 ft | 480 kts | 114° |
| 2026-04-21 13:26 | 39.37845 | 16.00771 | 34994 ft | 479 kts | 114° |
| 2026-04-21 13:27 | 39.35101 | 16.08619 | 35006 ft | 479 kts | 114° |
| 2026-04-21 13:27 | 39.32368 | 16.16408 | 34983 ft | 478 kts | 114° |
| 2026-04-21 13:28 | 39.29616 | 16.24223 | 34993 ft | 478 kts | 114° |
| 2026-04-21 13:28 | 39.26869 | 16.32044 | 34996 ft | 478 kts | 114° |
| 2026-04-21 13:29 | 39.24120 | 16.39852 | 35001 ft | 477 kts | 115° |
| 2026-04-21 13:29 | 39.21358 | 16.47640 | 35006 ft | 477 kts | 115° |
| 2026-04-21 13:30 | 39.18592 | 16.55415 | 35001 ft | 476 kts | 115° |
| 2026-04-21 13:30 | 39.15830 | 16.63170 | 34984 ft | 476 kts | 115° |
| 2026-04-21 13:31 | 39.13066 | 16.70914 | 34992 ft | 476 kts | 115° |
| 2026-04-21 13:31 | 39.10291 | 16.78664 | 34982 ft | 475 kts | 115° |
| 2026-04-21 13:32 | 39.07541 | 16.86337 | 34982 ft | 474 kts | 115° |
| 2026-04-21 13:32 | 39.04772 | 16.94042 | 34952 ft | 474 kts | 115° |
| 2026-04-21 13:33 | 39.01995 | 17.01732 | 34949 ft | 474 kts | 115° |
| 2026-04-21 13:33 | 38.99338 | 17.09478 | 34942 ft | 473 kts | 108° |
| 2026-04-21 13:34 | 38.97405 | 17.17572 | 34937 ft | 473 kts | 107° |
| 2026-04-21 13:34 | 38.95478 | 17.25668 | 34930 ft | 474 kts | 107° |
| 2026-04-21 13:35 | 38.93531 | 17.33756 | 34935 ft | 474 kts | 107° |
| 2026-04-21 13:35 | 38.91568 | 17.41835 | 34941 ft | 474 kts | 107° |
| 2026-04-21 13:36 | 38.89606 | 17.49922 | 34936 ft | 474 kts | 107° |
| 2026-04-21 13:36 | 38.87974 | 17.56644 | 34938 ft | 475 kts | 107° |
| 2026-04-21 13:37 | 38.86007 | 17.64732 | 34936 ft | 475 kts | 107° |
| 2026-04-21 13:37 | 38.84026 | 17.72818 | 34933 ft | 475 kts | 107° |
| 2026-04-21 13:38 | 38.82039 | 17.80896 | 34941 ft | 475 kts | 108° |
| 2026-04-21 13:38 | 38.80036 | 17.88972 | 34938 ft | 475 kts | 108° |
| 2026-04-21 13:39 | 38.78045 | 17.97058 | 34937 ft | 476 kts | 107° |
| 2026-04-21 13:39 | 38.76061 | 18.05096 | 34943 ft | 476 kts | 108° |
| 2026-04-21 13:40 | 38.74050 | 18.13179 | 34944 ft | 476 kts | 108° |
| 2026-04-21 13:40 | 38.72026 | 18.21253 | 34675 ft | 478 kts | 108° |
| 2026-04-21 13:41 | 38.70993 | 18.25358 | 33367 ft | 493 kts | 108° |
| 2026-04-21 13:41 | 38.69934 | 18.29547 | 32771 ft | 489 kts | 108° |
| 2026-04-21 13:41 | 38.68898 | 18.33637 | 32455 ft | 479 kts | 108° |
| 2026-04-21 13:41 | 38.67871 | 18.37689 | 31844 ft | 477 kts | 108° |
| 2026-04-21 13:42 | 38.66851 | 18.41708 | 31306 ft | 473 kts | 108° |
| 2026-04-21 13:42 | 38.65834 | 18.45698 | 30754 ft | 470 kts | 108° |
| 2026-04-21 13:42 | 38.64821 | 18.49665 | 30212 ft | 468 kts | 108° |
| 2026-04-21 13:42 | 38.63811 | 18.53604 | 29617 ft | 465 kts | 108° |
| 2026-04-21 13:43 | 38.62808 | 18.57517 | 29108 ft | 460 kts | 108° |
| 2026-04-21 13:43 | 38.61816 | 18.61386 | 28567 ft | 456 kts | 108° |
| 2026-04-21 13:43 | 38.60832 | 18.65216 | 28049 ft | 452 kts | 108° |
| 2026-04-21 13:43 | 38.59856 | 18.69010 | 27536 ft | 447 kts | 108° |
| 2026-04-21 13:44 | 38.58886 | 18.72773 | 27039 ft | 443 kts | 108° |
| 2026-04-21 13:44 | 38.57924 | 18.76496 | 26552 ft | 439 kts | 108° |
| 2026-04-21 13:44 | 38.56968 | 18.80182 | 26077 ft | 435 kts | 108° |
| 2026-04-21 13:44 | 38.56022 | 18.83837 | 25604 ft | 431 kts | 108° |
| 2026-04-21 13:45 | 38.55088 | 18.87453 | 25163 ft | 427 kts | 108° |
| 2026-04-21 13:45 | 38.54161 | 18.91048 | 24712 ft | 423 kts | 108° |
| 2026-04-21 13:45 | 38.53241 | 18.94603 | 24260 ft | 420 kts | 108° |
| 2026-04-21 13:45 | 38.52323 | 18.98126 | 23819 ft | 417 kts | 108° |
| 2026-04-21 13:46 | 38.51409 | 19.01626 | 23331 ft | 414 kts | 108° |
| 2026-04-21 13:46 | 38.50501 | 19.05099 | 22870 ft | 410 kts | 108° |
| 2026-04-21 13:46 | 38.49601 | 19.08541 | 22425 ft | 407 kts | 108° |
| 2026-04-21 13:46 | 38.48710 | 19.11948 | 21982 ft | 403 kts | 108° |
| 2026-04-21 13:47 | 38.47821 | 19.15335 | 21531 ft | 401 kts | 108° |
| 2026-04-21 13:47 | 38.46936 | 19.18694 | 21077 ft | 399 kts | 108° |
| 2026-04-21 13:47 | 38.46069 | 19.22051 | 20506 ft | 398 kts | 105° |
| 2026-04-21 13:47 | 38.45495 | 19.25522 | 19469 ft | 403 kts | 99° |
| 2026-04-21 13:48 | 38.44994 | 19.29013 | 18837 ft | 406 kts | 99° |
| 2026-04-21 13:48 | 38.44501 | 19.32557 | 18337 ft | 406 kts | 99° |
| 2026-04-21 13:48 | 38.44010 | 19.36106 | 17785 ft | 405 kts | 99° |
| 2026-04-21 13:48 | 38.43520 | 19.39635 | 17284 ft | 403 kts | 99° |
| 2026-04-21 13:49 | 38.43028 | 19.43148 | 16791 ft | 401 kts | 99° |
| 2026-04-21 13:49 | 38.42531 | 19.46645 | 16299 ft | 400 kts | 99° |
| 2026-04-21 13:49 | 38.42031 | 19.50122 | 15878 ft | 396 kts | 100° |
| 2026-04-21 13:49 | 38.41532 | 19.53580 | 15421 ft | 394 kts | 100° |
| 2026-04-21 13:50 | 38.41034 | 19.57006 | 14923 ft | 393 kts | 100° |
| 2026-04-21 13:50 | 38.40539 | 19.60400 | 14610 ft | 387 kts | 100° |
| 2026-04-21 13:50 | 38.40051 | 19.63754 | 14035 ft | 382 kts | 100° |
| 2026-04-21 13:50 | 38.39577 | 19.67013 | 13368 ft | 373 kts | 100° |
| 2026-04-21 13:51 | 38.39114 | 19.70209 | 12915 ft | 361 kts | 101° |
| 2026-04-21 13:51 | 38.38656 | 19.73346 | 12455 ft | 360 kts | 101° |
| 2026-04-21 13:51 | 38.38196 | 19.76482 | 11989 ft | 359 kts | 101° |
| 2026-04-21 13:51 | 38.37737 | 19.79603 | 11492 ft | 358 kts | 101° |
| 2026-04-21 13:52 | 38.37280 | 19.82715 | 11041 ft | 356 kts | 101° |
| 2026-04-21 13:52 | 38.36823 | 19.85814 | 10568 ft | 355 kts | 101° |
| 2026-04-21 13:52 | 38.36369 | 19.88896 | 10234 ft | 349 kts | 101° |
| 2026-04-21 13:52 | 38.35930 | 19.91881 | 10113 ft | 337 kts | 101° |
| 2026-04-21 13:53 | 38.35504 | 19.94762 | 9994 ft | 325 kts | 101° |
| 2026-04-21 13:53 | 38.35092 | 19.97547 | 9872 ft | 315 kts | 101° |
| 2026-04-21 13:53 | 38.34693 | 20.00252 | 9678 ft | 309 kts | 101° |
| 2026-04-21 13:53 | 38.34296 | 20.02937 | 9282 ft | 308 kts | 101° |
| 2026-04-21 13:54 | 38.33898 | 20.05600 | 8888 ft | 303 kts | 102° |
| 2026-04-21 13:54 | 38.33505 | 20.08214 | 8508 ft | 297 kts | 102° |
| 2026-04-21 13:54 | 38.33121 | 20.10768 | 8131 ft | 291 kts | 102° |
| 2026-04-21 13:54 | 38.32745 | 20.13276 | 7753 ft | 285 kts | 102° |
| 2026-04-21 13:55 | 38.32375 | 20.15738 | 7385 ft | 280 kts | 101° |
| 2026-04-21 13:55 | 38.32024 | 20.18091 | 7054 ft | 274 kts | 101° |
| 2026-04-21 13:55 | 38.31674 | 20.20440 | 6752 ft | 267 kts | 101° |
| 2026-04-21 13:55 | 38.31331 | 20.22734 | 6441 ft | 260 kts | 101° |
| 2026-04-21 13:56 | 38.30992 | 20.24970 | 6110 ft | 254 kts | 102° |
| 2026-04-21 13:56 | 38.30662 | 20.27140 | 5786 ft | 246 kts | 102° |
| 2026-04-21 13:56 | 38.30340 | 20.29273 | 5463 ft | 245 kts | 101° |
| 2026-04-21 13:56 | 38.30017 | 20.31410 | 5136 ft | 246 kts | 102° |
| 2026-04-21 13:57 | 38.29656 | 20.33525 | 4757 ft | 242 kts | 110° |
| 2026-04-21 13:57 | 38.28875 | 20.35377 | 4375 ft | 235 kts | 131° |
| 2026-04-21 13:57 | 38.27707 | 20.36728 | 3998 ft | 219 kts | 151° |
| 2026-04-21 13:57 | 38.26463 | 20.37761 | 3632 ft | 209 kts | 150° |
| 2026-04-21 13:58 | 38.25281 | 20.38755 | 3294 ft | 197 kts | 150° |
| 2026-04-21 13:58 | 38.24169 | 20.39692 | 2915 ft | 187 kts | 150° |
| 2026-04-21 13:58 | 38.23108 | 20.40584 | 2647 ft | 178 kts | 149° |
| 2026-04-21 13:58 | 38.22107 | 20.41430 | 2458 ft | 166 kts | 149° |
| 2026-04-21 13:59 | 38.21180 | 20.42218 | 2230 ft | 157 kts | 150° |
| 2026-04-21 13:59 | 38.20296 | 20.42955 | 2030 ft | 148 kts | 149° |
| 2026-04-21 13:59 | 38.19452 | 20.43670 | 1761 ft | 144 kts | 149° |
| 2026-04-21 13:59 | 38.18623 | 20.44365 | 1546 ft | 142 kts | 149° |
| 2026-04-21 14:00 | 38.17800 | 20.45058 | 1331 ft | 141 kts | 149° |
| 2026-04-21 14:00 | 38.16996 | 20.45776 | 1113 ft | 141 kts | 148° |
| 2026-04-21 14:00 | 38.16197 | 20.46493 | 877 ft | 141 kts | 148° |
| 2026-04-21 14:00 | 38.15409 | 20.47211 | 669 ft | 141 kts | 146° |
| 2026-04-21 14:01 | 38.14583 | 20.47920 | 466 ft | 140 kts | 150° |
| 2026-04-21 14:01 | 38.13777 | 20.48569 | 279 ft | 138 kts | 149° |
| 2026-04-21 14:01 | 38.12974 | 20.49232 | 101 ft | 137 kts | 149° |
| 2026-04-21 14:01 | 38.12246 | 20.49844 | 56 ft | 96 kts | 147° |
| 2026-04-21 14:02 | 38.11906 | 20.50130 | 65 ft | 37 kts | 146° |
| 2026-04-21 14:02 | 38.11754 | 20.50258 | 60 ft | 14 kts | 147° |
| 2026-04-21 14:02 | 38.11738 | 20.50314 | 61 ft | 6 kts | 55° |
| 2026-04-21 14:03 | 38.11785 | 20.50350 | 60 ft | 3 kts | 30° |
| 2026-04-21 14:03 | 38.11806 | 20.50365 | 66 ft | 6 kts | 30° |
| 2026-04-21 14:03 | 38.11831 | 20.50397 | 63 ft | 4 kts | 56° |
| 2026-04-21 14:03 | 38.11845 | 20.50425 | 63 ft | 3 kts | 57° |
| 2026-04-21 14:04 | 38.11854 | 20.50442 | 62 ft | 1 kts | 56° |
| 2026-04-21 14:04 | 38.11855 | 20.50445 | 63 ft | 0 kts | 56° |